Time;durP1;ratioP1;P1;durP2;ratioP2;P2;SDS_P1;SDS_P2;PMS_P1;PMS_P2;Temp;Humidity;BMP_temperature;BMP_pressure;BME280_temperature;BME280_humidity;BME280_pressure;Samples;Min_cycle;Max_cycle;Signal;HPM_P1;HPM_P2
2021/11/22 00:02:02;;;;;;;6.72;4.93;;;;;;;;;;5016187;28;20108;-53
2021/11/22 00:04:28;;;;;;;9.95;4.30;;;;;;;;;;5011497;28;20038;-55
2021/11/22 00:06:53;;;;;;;4.30;3.90;;;;;;;;;;5015171;28;20083;-54
2021/11/22 00:09:19;;;;;;;4.70;3.38;;;;;;;;;;5013323;28;20045;-55
2021/11/22 00:11:45;;;;;;;5.22;3.90;;;;;;;;;;5015688;28;20029;-54
2021/11/22 00:14:10;;;;;;;4.55;3.97;;;;;;;;;;5017259;28;20048;-54
2021/11/22 00:16:35;;;;;;;5.03;3.83;;;;;;;;;;5014199;28;20036;-55
2021/11/22 00:19:02;;;;;;;4.97;4.47;;;;;;;;;;5011557;28;20052;-55
2021/11/22 00:21:27;;;;;;;4.00;3.35;;;;;;;;;;5015662;28;20037;-54
2021/11/22 00:23:53;;;;;;;6.03;3.97;;;;;;;;;;5017481;28;20498;-54
2021/11/22 00:26:18;;;;;;;7.80;4.82;;;;;;;;;;5017295;28;20033;-61
2021/11/22 00:28:43;;;;;;;4.90;4.38;;;;;;;;;;5016225;28;20033;-62
2021/11/22 00:31:09;;;;;;;3.83;2.85;;;;;;;;;;5019026;28;20038;-61
2021/11/22 00:33:34;;;;;;;7.35;4.55;;;;;;;;;;5014072;28;20506;-61
2021/11/22 00:36:01;;;;;;;5.18;4.68;;;;;;;;;;5011760;28;20038;-61
2021/11/22 00:38:26;;;;;;;4.38;3.92;;;;;;;;;;5015475;28;20025;-61
2021/11/22 00:40:53;;;;;;;4.30;3.72;;;;;;;;;;5017744;28;20897;-61
2021/11/22 00:43:20;;;;;;;4.80;3.97;;;;;;;;;;5018038;28;20037;-61
2021/11/22 00:45:52;;;;;;;4.93;3.92;;;;;;;;;;5018694;28;20029;-61
2021/11/22 00:48:21;;;;;;;5.00;3.65;;;;;;;;;;5016004;28;20030;-61
2021/11/22 00:50:47;;;;;;;4.90;4.40;;;;;;;;;;5014951;28;20029;-61
2021/11/22 00:53:13;;;;;;;4.60;4.20;;;;;;;;;;5013279;28;20048;-61
2021/11/22 00:55:38;;;;;;;5.78;4.25;;;;;;;;;;5015700;28;20030;-61
2021/11/22 00:58:03;;;;;;;5.55;4.07;;;;;;;;;;5015939;28;20536;-61
2021/11/22 01:00:29;;;;;;;6.45;4.20;;;;;;;;;;5012886;28;20025;-61
2021/11/22 01:02:54;;;;;;;6.30;3.85;;;;;;;;;;5015193;28;20033;-61
2021/11/22 01:05:20;;;;;;;3.72;3.42;;;;;;;;;;5016976;28;20116;-61
2021/11/22 01:07:45;;;;;;;6.05;4.38;;;;;;;;;;5012524;28;20038;-61
2021/11/22 01:10:13;;;;;;;5.45;4.78;;;;;;;;;;5018556;28;20049;-61
2021/11/22 01:12:38;;;;;;;9.07;3.83;;;;;;;;;;5016160;28;20036;-61
2021/11/22 01:15:09;;;;;;;7.70;4.57;;;;;;;;;;5014537;28;20042;-61
2021/11/22 01:17:34;;;;;;;6.43;5.33;;;;;;;;;;5016339;28;20078;-61
2021/11/22 01:20:00;;;;;;;5.03;3.65;;;;;;;;;;5014659;28;20062;-61
2021/11/22 01:22:26;;;;;;;7.15;4.22;;;;;;;;;;5013750;28;20344;-61
2021/11/22 01:24:52;;;;;;;4.47;4.07;;;;;;;;;;5014390;28;20034;-61
2021/11/22 01:27:17;;;;;;;7.18;4.10;;;;;;;;;;5014306;28;20109;-62
2021/11/22 01:29:43;;;;;;;4.32;3.90;;;;;;;;;;5014088;28;20467;-61
2021/11/22 01:32:08;;;;;;;6.72;4.30;;;;;;;;;;5015626;28;20103;-61
2021/11/22 01:34:34;;;;;;;4.88;4.15;;;;;;;;;;5012555;28;20869;-61
2021/11/22 01:37:00;;;;;;;12.38;3.72;;;;;;;;;;5016008;28;20034;-61
2021/11/22 01:39:25;;;;;;;4.18;3.75;;;;;;;;;;5013583;28;20064;-61
2021/11/22 01:41:51;;;;;;;7.28;4.85;;;;;;;;;;5019762;28;20030;-54
2021/11/22 01:44:16;;;;;;;4.50;3.80;;;;;;;;;;5015289;28;20059;-54
2021/11/22 01:46:48;;;;;;;7.65;4.95;;;;;;;;;;5018477;28;20102;-51
2021/11/22 01:49:14;;;;;;;8.20;5.32;;;;;;;;;;5015369;28;20375;-52
2021/11/22 01:51:40;;;;;;;6.30;4.85;;;;;;;;;;5016312;28;20064;-54
2021/11/22 01:54:05;;;;;;;5.13;4.60;;;;;;;;;;5013010;28;20069;-52
2021/11/22 01:56:31;;;;;;;4.07;3.65;;;;;;;;;;5012614;28;20037;-54
2021/11/22 01:58:56;;;;;;;7.68;3.85;;;;;;;;;;5014683;28;20030;-52
2021/11/22 02:01:22;;;;;;;6.78;3.75;;;;;;;;;;5012156;28;20025;-54
2021/11/22 02:03:47;;;;;;;3.85;3.35;;;;;;;;;;5014117;28;20529;-53
2021/11/22 02:06:13;;;;;;;4.95;3.97;;;;;;;;;;5018602;28;20034;-55
2021/11/22 02:08:39;;;;;;;5.82;4.65;;;;;;;;;;5011822;28;20422;-53
2021/11/22 02:11:04;;;;;;;4.00;3.60;;;;;;;;;;5017223;28;20457;-54
2021/11/22 02:13:29;;;;;;;6.85;4.47;;;;;;;;;;5014152;28;20045;-54
2021/11/22 02:15:55;;;;;;;4.50;3.70;;;;;;;;;;5014695;28;20030;-53
2021/11/22 02:18:21;;;;;;;6.75;5.30;;;;;;;;;;5015007;28;20045;-53
2021/11/22 02:20:48;;;;;;;3.55;3.00;;;;;;;;;;5014109;28;20363;-54
2021/11/22 02:23:14;;;;;;;3.13;2.50;;;;;;;;;;5015900;28;20104;-53
2021/11/22 02:25:42;;;;;;;6.25;4.60;;;;;;;;;;5016033;28;20037;-53
2021/11/22 02:28:09;;;;;;;4.78;4.22;;;;;;;;;;5013545;28;20029;-51
2021/11/22 02:30:38;;;;;;;3.25;2.80;;;;;;;;;;5013069;28;20038;-51
2021/11/22 02:33:14;;;;;;;3.53;3.10;;;;;;;;;;5003734;28;20137;-53
2021/11/22 02:35:43;;;;;;;3.90;2.67;;;;;;;;;;5010083;28;20042;-52
2021/11/22 02:38:09;;;;;;;4.00;2.85;;;;;;;;;;5011417;28;20033;-53
2021/11/22 02:40:35;;;;;;;5.22;3.72;;;;;;;;;;5006498;28;20037;-54
2021/11/22 02:43:00;;;;;;;4.28;3.20;;;;;;;;;;5012822;28;20037;-52
2021/11/22 02:45:26;;;;;;;3.35;2.85;;;;;;;;;;5012972;28;20529;-52
2021/11/22 02:47:52;;;;;;;5.85;3.00;;;;;;;;;;5015486;28;20026;-52
2021/11/22 02:50:20;;;;;;;3.33;2.72;;;;;;;;;;5015053;28;20100;-54
2021/11/22 02:52:47;;;;;;;2.80;2.47;;;;;;;;;;5015613;28;20045;-53
2021/11/22 02:55:15;;;;;;;4.18;3.05;;;;;;;;;;5017358;28;20038;-49
2021/11/22 02:57:41;;;;;;;2.85;2.47;;;;;;;;;;5014903;28;20581;-51
2021/11/22 03:00:11;;;;;;;3.08;2.53;;;;;;;;;;5020684;28;20072;-51
2021/11/22 03:02:38;;;;;;;3.63;3.08;;;;;;;;;;5017010;28;20111;-52
2021/11/22 03:05:05;;;;;;;3.78;2.70;;;;;;;;;;5014511;28;20042;-54
2021/11/22 03:07:30;;;;;;;3.33;2.30;;;;;;;;;;5015617;28;20037;-53
2021/11/22 03:09:55;;;;;;;3.10;2.60;;;;;;;;;;5016607;28;20157;-53
2021/11/22 03:12:21;;;;;;;5.07;2.78;;;;;;;;;;5015084;28;20128;-53
2021/11/22 03:14:47;;;;;;;3.72;2.72;;;;;;;;;;5019963;28;20091;-53
2021/11/22 03:17:12;;;;;;;3.03;2.17;;;;;;;;;;5018758;28;20048;-53
2021/11/22 03:19:38;;;;;;;3.13;2.58;;;;;;;;;;5017654;28;20038;-50
2021/11/22 03:22:04;;;;;;;2.90;2.50;;;;;;;;;;5020392;28;20030;-51
2021/11/22 03:24:30;;;;;;;3.47;2.88;;;;;;;;;;5005354;28;20037;-54
2021/11/22 03:26:56;;;;;;;2.85;2.22;;;;;;;;;;5016588;28;20030;-52
2021/11/22 03:29:22;;;;;;;2.60;2.13;;;;;;;;;;5015467;28;20056;-53
2021/11/22 03:31:47;;;;;;;3.50;2.90;;;;;;;;;;5018113;28;20430;-52
2021/11/22 03:34:13;;;;;;;4.82;2.70;;;;;;;;;;5017729;28;20030;-52
2021/11/22 03:36:41;;;;;;;8.10;2.75;;;;;;;;;;5018374;28;20038;-52
2021/11/22 03:39:15;;;;;;;3.97;2.97;;;;;;;;;;5016520;28;20065;-49
2021/11/22 03:41:40;;;;;;;3.45;2.72;;;;;;;;;;5015728;28;20049;-51
2021/11/22 03:44:13;;;;;;;2.60;2.08;;;;;;;;;;5020463;28;20070;-51
2021/11/22 03:46:41;;;;;;;4.03;2.47;;;;;;;;;;5015290;28;20113;-51
2021/11/22 03:49:07;;;;;;;3.28;2.40;;;;;;;;;;5018477;28;20041;-52
2021/11/22 03:51:33;;;;;;;2.63;2.15;;;;;;;;;;5016231;28;20518;-54
2021/11/22 03:53:58;;;;;;;4.65;2.67;;;;;;;;;;5017934;28;20068;-54
2021/11/22 03:56:24;;;;;;;3.15;2.38;;;;;;;;;;5016469;28;20033;-54
2021/11/22 03:58:49;;;;;;;3.00;2.53;;;;;;;;;;5017498;28;20044;-54
2021/11/22 04:01:15;;;;;;;8.77;2.53;;;;;;;;;;5011886;28;20038;-54
2021/11/22 04:03:40;;;;;;;3.58;2.95;;;;;;;;;;5017607;28;20145;-52
2021/11/22 04:06:06;;;;;;;3.05;2.38;;;;;;;;;;5017497;28;20051;-53
2021/11/22 04:08:31;;;;;;;5.32;2.85;;;;;;;;;;5017782;28;20046;-50
2021/11/22 04:10:57;;;;;;;5.60;2.58;;;;;;;;;;5016044;28;20076;-54
2021/11/22 04:13:23;;;;;;;9.40;2.90;;;;;;;;;;5017402;28;20033;-53
2021/11/22 04:15:49;;;;;;;2.72;2.22;;;;;;;;;;5016894;28;20068;-55
2021/11/22 04:18:14;;;;;;;2.50;1.90;;;;;;;;;;5016878;28;20061;-50
2021/11/22 04:20:41;;;;;;;5.95;3.78;;;;;;;;;;5015080;28;20041;-51
2021/11/22 04:23:07;;;;;;;2.50;1.73;;;;;;;;;;5015166;28;20095;-54
2021/11/22 04:25:33;;;;;;;3.00;2.53;;;;;;;;;;5018643;28;20045;-52
2021/11/22 04:27:59;;;;;;;2.97;2.40;;;;;;;;;;5018116;28;20059;-53
2021/11/22 04:30:25;;;;;;;2.88;2.38;;;;;;;;;;5013861;28;20456;-54
2021/11/22 04:32:51;;;;;;;3.10;2.60;;;;;;;;;;5016625;28;20038;-56
2021/11/22 04:35:18;;;;;;;3.38;2.70;;;;;;;;;;5016528;28;20041;-53
2021/11/22 04:37:44;;;;;;;2.67;2.00;;;;;;;;;;5015922;28;20038;-53
2021/11/22 04:40:13;;;;;;;3.00;2.20;;;;;;;;;;5019155;28;20052;-54
2021/11/22 04:42:39;;;;;;;3.28;2.70;;;;;;;;;;5017260;28;20037;-54
2021/11/22 04:45:06;;;;;;;3.03;2.53;;;;;;;;;;5016912;28;20094;-54
2021/11/22 04:47:34;;;;;;;2.65;2.08;;;;;;;;;;5013843;28;20033;-54
2021/11/22 04:49:59;;;;;;;3.22;2.88;;;;;;;;;;5013847;28;20032;-55
2021/11/22 04:52:25;;;;;;;3.33;2.65;;;;;;;;;;5015220;28;20045;-51
2021/11/22 04:54:50;;;;;;;4.60;2.38;;;;;;;;;;5012645;28;20439;-54
2021/11/22 04:57:16;;;;;;;4.60;2.75;;;;;;;;;;5013430;28;20709;-53
2021/11/22 04:59:42;;;;;;;2.58;1.95;;;;;;;;;;5013427;28;20108;-55
2021/11/22 05:02:09;;;;;;;3.17;2.63;;;;;;;;;;5014646;28;20028;-52
2021/11/22 05:04:38;;;;;;;4.00;2.95;;;;;;;;;;5013963;28;20034;-53
2021/11/22 05:07:04;;;;;;;2.67;2.25;;;;;;;;;;5015069;28;20037;-54
2021/11/22 05:09:30;;;;;;;3.30;2.40;;;;;;;;;;5015766;28;20032;-53
2021/11/22 05:11:55;;;;;;;2.63;2.20;;;;;;;;;;5016110;28;20375;-54
2021/11/22 05:14:21;;;;;;;5.90;2.95;;;;;;;;;;5013360;28;20156;-54
2021/11/22 05:16:47;;;;;;;3.17;2.53;;;;;;;;;;5017073;28;20038;-55
2021/11/22 05:19:13;;;;;;;2.90;2.30;;;;;;;;;;5013381;28;20025;-54
2021/11/22 05:21:40;;;;;;;3.38;2.92;;;;;;;;;;5013667;28;20096;-60
2021/11/22 05:24:06;;;;;;;3.50;2.85;;;;;;;;;;5016212;28;20148;-60
2021/11/22 05:26:32;;;;;;;2.70;2.13;;;;;;;;;;5030642;28;20033;-60
2021/11/22 05:28:58;;;;;;;3.38;2.88;;;;;;;;;;5011994;28;20107;-60
2021/11/22 05:31:24;;;;;;;3.90;2.85;;;;;;;;;;5012970;28;20081;-60
2021/11/22 05:33:50;;;;;;;3.45;2.50;;;;;;;;;;5014831;28;20060;-60
2021/11/22 05:36:16;;;;;;;2.85;2.22;;;;;;;;;;5015289;28;20033;-60
2021/11/22 05:38:42;;;;;;;3.15;2.25;;;;;;;;;;5015023;28;20069;-61
2021/11/22 05:41:07;;;;;;;3.15;2.38;;;;;;;;;;5015191;28;20040;-61
2021/11/22 05:43:35;;;;;;;3.00;2.65;;;;;;;;;;5013356;28;20026;-60
2021/11/22 05:46:00;;;;;;;2.70;2.22;;;;;;;;;;5016292;28;20034;-60
2021/11/22 05:48:26;;;;;;;3.10;2.65;;;;;;;;;;5016007;28;20064;-60
2021/11/22 05:50:54;;;;;;;2.85;2.47;;;;;;;;;;5011947;28;20091;-61
2021/11/22 05:53:20;;;;;;;2.78;2.38;;;;;;;;;;5017008;28;20033;-60
2021/11/22 05:55:50;;;;;;;4.15;2.97;;;;;;;;;;5014823;28;20025;-61
2021/11/22 05:58:15;;;;;;;2.80;2.45;;;;;;;;;;5012033;28;20045;-60
2021/11/22 06:00:41;;;;;;;14.02;2.83;;;;;;;;;;5011994;28;20037;-61
2021/11/22 06:03:07;;;;;;;4.05;3.05;;;;;;;;;;5014961;28;20724;-60
2021/11/22 06:05:33;;;;;;;2.85;2.22;;;;;;;;;;5014410;28;20049;-61
2021/11/22 06:07:58;;;;;;;3.63;3.08;;;;;;;;;;5012629;28;20091;-60
2021/11/22 06:10:24;;;;;;;3.00;2.42;;;;;;;;;;5015033;28;20030;-60
2021/11/22 06:12:49;;;;;;;2.88;2.30;;;;;;;;;;5016196;28;20091;-61
2021/11/22 06:15:15;;;;;;;3.28;2.40;;;;;;;;;;5014803;28;20044;-60
2021/11/22 06:17:40;;;;;;;3.85;2.22;;;;;;;;;;5015644;28;20053;-61
2021/11/22 06:20:08;;;;;;;3.20;2.40;;;;;;;;;;4993826;28;20030;-61
2021/11/22 06:22:33;;;;;;;4.78;2.35;;;;;;;;;;5013414;28;20457;-60
2021/11/22 06:24:58;;;;;;;3.47;2.47;;;;;;;;;;5016950;28;20108;-60
2021/11/22 06:27:25;;;;;;;6.57;3.13;;;;;;;;;;5017241;28;20037;-60
2021/11/22 06:29:51;;;;;;;2.97;2.55;;;;;;;;;;5021356;28;20042;-61
2021/11/22 06:32:17;;;;;;;3.03;2.47;;;;;;;;;;5018778;28;20065;-64
2021/11/22 06:34:43;;;;;;;4.22;2.55;;;;;;;;;;5015516;28;20112;-61
2021/11/22 06:37:09;;;;;;;6.63;3.90;;;;;;;;;;5020365;28;20468;-61
2021/11/22 06:39:35;;;;;;;4.07;3.08;;;;;;;;;;5016662;28;20034;-62
2021/11/22 06:42:01;;;;;;;3.08;2.45;;;;;;;;;;5018060;28;20094;-61
2021/11/22 06:44:26;;;;;;;6.13;2.90;;;;;;;;;;5018046;28;20041;-63
2021/11/22 06:46:52;;;;;;;2.65;2.15;;;;;;;;;;5017981;28;20117;-61
2021/11/22 06:49:19;;;;;;;2.80;2.28;;;;;;;;;;5017039;28;20057;-61
2021/11/22 06:51:46;;;;;;;4.63;2.33;;;;;;;;;;5015881;28;20441;-61
2021/11/22 06:54:11;;;;;;;2.78;2.30;;;;;;;;;;5018738;28;20037;-61
2021/11/22 06:56:36;;;;;;;4.32;3.38;;;;;;;;;;5015989;28;20120;-61
2021/11/22 06:59:02;;;;;;;3.13;2.22;;;;;;;;;;5019339;28;20037;-61
2021/11/22 07:01:29;;;;;;;3.78;2.80;;;;;;;;;;5016539;28;20042;-61
2021/11/22 07:03:54;;;;;;;5.00;3.38;;;;;;;;;;5012583;28;20030;-61
2021/11/22 07:06:20;;;;;;;3.00;2.58;;;;;;;;;;5018570;28;20372;-61
2021/11/22 07:08:45;;;;;;;3.03;2.72;;;;;;;;;;5018361;28;20038;-62
2021/11/22 07:11:10;;;;;;;3.90;3.28;;;;;;;;;;5020144;28;20584;-62
2021/11/22 07:13:36;;;;;;;3.22;2.90;;;;;;;;;;5017328;28;20230;-61
2021/11/22 07:16:02;;;;;;;4.50;3.40;;;;;;;;;;5016690;28;20042;-61
2021/11/22 07:18:28;;;;;;;3.05;2.50;;;;;;;;;;5019323;28;20375;-61
2021/11/22 07:20:53;;;;;;;3.53;3.00;;;;;;;;;;5018607;28;20104;-60
2021/11/22 07:23:22;;;;;;;4.28;3.00;;;;;;;;;;5015836;28;20105;-60
2021/11/22 07:25:53;;;;;;;3.05;2.45;;;;;;;;;;5017078;28;20053;-62
2021/11/22 07:28:19;;;;;;;3.85;3.17;;;;;;;;;;5015017;28;20072;-61
2021/11/22 07:30:45;;;;;;;4.07;3.17;;;;;;;;;;5016306;28;20034;-61
2021/11/22 07:33:11;;;;;;;6.78;3.70;;;;;;;;;;5015312;28;20052;-61
2021/11/22 07:35:37;;;;;;;3.95;2.70;;;;;;;;;;5017088;28;20037;-61
2021/11/22 07:38:02;;;;;;;3.25;2.85;;;;;;;;;;5017549;28;20038;-61
2021/11/22 07:40:28;;;;;;;3.40;2.90;;;;;;;;;;5019485;28;20088;-61
2021/11/22 07:42:54;;;;;;;4.15;2.78;;;;;;;;;;5017406;28;20022;-61
2021/11/22 07:45:21;;;;;;;3.28;2.70;;;;;;;;;;5015269;28;20064;-61
2021/11/22 07:47:47;;;;;;;3.85;2.65;;;;;;;;;;5014456;28;20037;-61
2021/11/22 07:50:13;;;;;;;3.80;2.83;;;;;;;;;;5018551;28;20037;-60
2021/11/22 07:52:38;;;;;;;3.13;2.83;;;;;;;;;;5015794;28;20038;-60
2021/11/22 07:55:04;;;;;;;4.38;2.72;;;;;;;;;;5016461;28;20423;-60
2021/11/22 07:57:30;;;;;;;4.43;3.33;;;;;;;;;;5015150;28;20041;-60
2021/11/22 07:59:56;;;;;;;3.45;2.95;;;;;;;;;;5015194;28;20029;-62
2021/11/22 08:02:21;;;;;;;4.28;3.08;;;;;;;;;;5014493;28;20490;-61
2021/11/22 08:04:47;;;;;;;5.95;3.30;;;;;;;;;;5013895;28;20048;-61
2021/11/22 08:07:16;;;;;;;3.65;3.28;;;;;;;;;;5013812;28;20042;-62
2021/11/22 08:09:47;;;;;;;3.85;3.28;;;;;;;;;;5014643;28;20049;-61
2021/11/22 08:12:26;;;;;;;5.07;3.17;;;;;;;;;;5016573;28;20034;-62
2021/11/22 08:14:52;;;;;;;4.00;3.60;;;;;;;;;;5016138;28;20037;-61
2021/11/22 08:17:17;;;;;;;4.35;3.95;;;;;;;;;;5016285;28;20057;-62
2021/11/22 08:19:43;;;;;;;4.28;3.42;;;;;;;;;;5018347;28;20068;-62
2021/11/22 08:22:09;;;;;;;3.05;2.72;;;;;;;;;;5016923;28;20436;-61
2021/11/22 08:24:36;;;;;;;6.57;4.45;;;;;;;;;;5016739;28;20041;-61
2021/11/22 08:27:01;;;;;;;2.95;2.42;;;;;;;;;;5012734;28;20033;-61
2021/11/22 08:29:27;;;;;;;4.13;3.10;;;;;;;;;;5017579;28;20048;-61
2021/11/22 08:31:52;;;;;;;6.25;3.35;;;;;;;;;;5017617;28;20554;-62
2021/11/22 08:34:17;;;;;;;3.75;2.97;;;;;;;;;;5016162;28;20034;-62
2021/11/22 08:36:43;;;;;;;4.35;2.95;;;;;;;;;;5014127;28;20476;-62
2021/11/22 08:39:09;;;;;;;2.83;2.33;;;;;;;;;;5015771;28;20088;-61
2021/11/22 08:41:34;;;;;;;5.13;3.33;;;;;;;;;;5016403;28;20034;-61
2021/11/22 08:43:59;;;;;;;3.40;2.60;;;;;;;;;;5016040;28;20437;-62
2021/11/22 08:46:25;;;;;;;3.00;2.35;;;;;;;;;;5016298;28;20033;-62
2021/11/22 08:48:51;;;;;;;5.63;4.18;;;;;;;;;;5016293;28;20466;-62
2021/11/22 08:51:16;;;;;;;3.15;2.63;;;;;;;;;;5016049;28;20413;-61
2021/11/22 08:53:42;;;;;;;3.80;3.35;;;;;;;;;;5016524;28;20057;-61
2021/11/22 08:56:08;;;;;;;3.92;3.10;;;;;;;;;;5014776;28;20132;-61
2021/11/22 08:58:33;;;;;;;3.50;3.15;;;;;;;;;;5016051;28;20486;-61
2021/11/22 09:00:58;;;;;;;3.25;2.92;;;;;;;;;;5004899;28;20104;-62
2021/11/22 09:03:24;;;;;;;2.90;2.50;;;;;;;;;;5015465;28;20038;-61
2021/11/22 09:05:49;;;;;;;4.50;3.47;;;;;;;;;;5015912;28;20036;-62
2021/11/22 09:08:16;;;;;;;4.20;3.67;;;;;;;;;;5015409;28;20049;-62
2021/11/22 09:10:42;;;;;;;3.05;2.75;;;;;;;;;;5015672;28;20176;-62
2021/11/22 09:13:07;;;;;;;3.88;2.95;;;;;;;;;;5014495;28;20112;-61
2021/11/22 09:15:33;;;;;;;2.92;2.63;;;;;;;;;;5014468;28;20467;-62
2021/11/22 09:17:58;;;;;;;3.70;3.35;;;;;;;;;;5014296;28;20045;-61
2021/11/22 09:20:25;;;;;;;6.53;3.00;;;;;;;;;;5016784;28;20033;-61
2021/11/22 09:23:01;;;;;;;3.63;3.15;;;;;;;;;;5013591;28;20387;-61
2021/11/22 09:25:28;;;;;;;3.08;2.78;;;;;;;;;;5013450;28;20095;-61
2021/11/22 09:27:53;;;;;;;3.10;2.60;;;;;;;;;;5013662;28;20041;-61
2021/11/22 09:30:19;;;;;;;4.65;3.65;;;;;;;;;;5012751;28;20075;-61
2021/11/22 09:32:45;;;;;;;10.75;2.53;;;;;;;;;;5013212;28;20108;-61
2021/11/22 09:35:10;;;;;;;3.20;2.55;;;;;;;;;;5017382;28;20025;-61
2021/11/22 09:37:37;;;;;;;6.03;3.13;;;;;;;;;;5013014;28;20049;-60
2021/11/22 09:40:06;;;;;;;7.95;4.40;;;;;;;;;;5014428;28;20124;-60
2021/11/22 09:42:31;;;;;;;3.50;3.08;;;;;;;;;;5016964;28;20030;-61
2021/11/22 09:44:57;;;;;;;3.25;2.70;;;;;;;;;;5012472;28;20537;-61
2021/11/22 09:47:23;;;;;;;3.20;2.50;;;;;;;;;;5017315;28;20060;-61
2021/11/22 09:49:53;;;;;;;3.10;2.67;;;;;;;;;;5016499;28;20581;-61
2021/11/22 09:52:19;;;;;;;3.92;3.28;;;;;;;;;;5015569;28;20373;-61
2021/11/22 09:54:45;;;;;;;2.85;2.25;;;;;;;;;;5007282;28;20041;-61
2021/11/22 09:57:12;;;;;;;3.00;2.63;;;;;;;;;;5006674;28;20038;-61
2021/11/22 09:59:38;;;;;;;3.25;2.85;;;;;;;;;;5012088;28;20379;-61
2021/11/22 10:02:03;;;;;;;3.53;3.03;;;;;;;;;;5009827;28;20025;-60
2021/11/22 10:04:31;;;;;;;3.13;2.47;;;;;;;;;;5007931;28;20467;-60
2021/11/22 10:07:03;;;;;;;4.55;2.95;;;;;;;;;;5014047;28;20504;-60
2021/11/22 10:09:34;;;;;;;3.13;2.60;;;;;;;;;;5010101;28;20195;-61
2021/11/22 10:12:04;;;;;;;3.95;2.70;;;;;;;;;;5015715;28;20037;-60
2021/11/22 10:14:48;;;;;;;3.60;2.50;;;;;;;;;;5020579;28;20034;-60
2021/11/22 10:17:27;;;;;;;2.80;2.28;;;;;;;;;;5017368;28;20463;-60
2021/11/22 10:20:11;;;;;;;3.45;2.90;;;;;;;;;;5016402;28;20045;-60
2021/11/22 10:22:51;;;;;;;3.00;2.30;;;;;;;;;;5014783;28;20057;-61
2021/11/22 10:25:20;;;;;;;2.90;2.38;;;;;;;;;;5015111;28;20053;-61
2021/11/22 10:27:46;;;;;;;2.88;2.15;;;;;;;;;;5012922;28;20583;-61
2021/11/22 10:30:27;;;;;;;3.17;2.75;;;;;;;;;;5013131;28;20046;-61
2021/11/22 10:33:00;;;;;;;2.95;2.50;;;;;;;;;;5014594;28;20336;-61
2021/11/22 10:35:28;;;;;;;2.70;2.22;;;;;;;;;;5012293;28;20109;-61
2021/11/22 10:38:15;;;;;;;3.33;2.80;;;;;;;;;;5013263;28;20047;-61
2021/11/22 10:41:06;;;;;;;2.90;2.60;;;;;;;;;;5016161;28;20037;-61
2021/11/22 10:43:37;;;;;;;3.08;2.58;;;;;;;;;;5011288;28;20467;-61
2021/11/22 10:46:08;;;;;;;;;;;;;;;;;;5014744;28;20038;-61
2021/11/22 10:48:34;;;;;;;3.25;2.70;;;;;;;;;;5013240;28;19917;-61
2021/11/22 10:51:28;;;;;;;2.95;2.47;;;;;;;;;;5013931;28;20030;-61
2021/11/22 10:53:57;;;;;;;3.00;2.42;;;;;;;;;;5011379;28;20084;-61
2021/11/22 10:56:28;;;;;;;3.10;2.40;;;;;;;;;;5013972;28;20048;-60
2021/11/22 10:59:16;;;;;;;2.80;2.40;;;;;;;;;;5011515;28;20545;-49
2021/11/22 11:01:43;;;;;;;2.78;2.42;;;;;;;;;;5012030;28;20499;-51
2021/11/22 11:04:13;;;;;;;2.83;2.38;;;;;;;;;;5009569;28;20093;-53
2021/11/22 11:07:06;;;;;;;2.80;2.10;;;;;;;;;;5012222;28;20038;-50
2021/11/22 11:09:49;;;;;;;3.00;2.70;;;;;;;;;;5012840;28;20046;-51
2021/11/22 11:12:20;;;;;;;3.78;2.92;;;;;;;;;;5017234;28;20049;-51
2021/11/22 11:14:47;;;;;;;3.85;2.72;;;;;;;;;;5019937;28;20060;-49
2021/11/22 11:17:14;;;;;;;3.17;2.50;;;;;;;;;;5019452;28;20108;-50
2021/11/22 11:19:40;;;;;;;2.90;2.22;;;;;;;;;;5019207;28;20037;-54
2021/11/22 11:22:05;;;;;;;2.60;2.00;;;;;;;;;;5016581;28;20099;-49
2021/11/22 11:24:32;;;;;;;2.95;2.20;;;;;;;;;;5020172;28;20033;-52
2021/11/22 11:26:57;;;;;;;2.60;2.10;;;;;;;;;;5018175;28;20041;-51
2021/11/22 11:29:23;;;;;;;3.22;2.50;;;;;;;;;;5015884;28;20037;-51
2021/11/22 11:31:48;;;;;;;2.65;2.15;;;;;;;;;;5018602;28;20117;-52
2021/11/22 11:34:15;;;;;;;3.30;2.97;;;;;;;;;;5015805;28;20043;-49
2021/11/22 11:37:08;;;;;;;2.92;2.35;;;;;;;;;;5019819;28;20034;-53
2021/11/22 11:40:07;;;;;;;2.78;2.40;;;;;;;;;;5019364;28;20037;-51
2021/11/22 11:42:53;;;;;;;4.43;2.38;;;;;;;;;;5018341;28;20085;-51
2021/11/22 11:45:26;;;;;;;2.80;2.20;;;;;;;;;;5015834;28;20040;-52
2021/11/22 11:48:12;;;;;;;2.70;2.33;;;;;;;;;;5014687;28;20037;-51
2021/11/22 11:50:44;;;;;;;2.80;2.47;;;;;;;;;;5017359;28;20476;-51
2021/11/22 11:53:12;;;;;;;2.90;2.42;;;;;;;;;;5017406;28;20117;-52
2021/11/22 11:55:39;;;;;;;2.67;2.15;;;;;;;;;;5016624;28;20100;-52
2021/11/22 11:58:24;;;;;;;2.80;2.05;;;;;;;;;;5018262;28;20119;-52
2021/11/22 12:00:54;;;;;;;2.97;2.53;;;;;;;;;;5014747;28;20109;-49
2021/11/22 12:03:21;;;;;;;2.90;2.35;;;;;;;;;;5019189;28;20099;-51
2021/11/22 12:05:50;;;;;;;2.70;2.08;;;;;;;;;;5014675;28;20741;-50
2021/11/22 12:08:37;;;;;;;2.60;1.95;;;;;;;;;;5012871;28;20050;-50
2021/11/22 12:11:04;;;;;;;3.42;2.70;;;;;;;;;;5015834;28;20041;-49
2021/11/22 12:13:52;;;;;;;3.38;2.35;;;;;;;;;;5018349;28;20115;-50
2021/11/22 12:16:43;;;;;;;7.10;2.53;;;;;;;;;;5013242;28;20101;-54
2021/11/22 12:19:41;;;;;;;3.00;2.42;;;;;;;;;;5014640;28;20037;-54
2021/11/22 12:22:09;;;;;;;2.95;2.42;;;;;;;;;;5012653;28;20030;-54
2021/11/22 12:24:39;;;;;;;3.05;2.75;;;;;;;;;;5018569;28;20057;-53
2021/11/22 12:27:27;;;;;;;2.90;2.30;;;;;;;;;;5014349;28;20107;-52
2021/11/22 12:29:57;;;;;;;2.65;1.95;;;;;;;;;;5017951;28;20045;-53
2021/11/22 12:32:34;;;;;;;2.90;2.30;;;;;;;;;;5013476;28;20131;-51
2021/11/22 12:35:03;;;;;;;3.25;2.45;;;;;;;;;;5020918;28;20025;-53
2021/11/22 12:37:32;;;;;;;3.58;2.05;;;;;;;;;;5017261;28;20113;-53
2021/11/22 12:40:13;;;;;;;2.70;2.20;;;;;;;;;;5014530;28;20112;-50
2021/11/22 12:42:52;;;;;;;2.60;2.00;;;;;;;;;;5016922;28;20022;-49
2021/11/22 12:45:18;;;;;;;2.63;2.20;;;;;;;;;;5016797;28;20045;-50
2021/11/22 12:47:44;;;;;;;2.95;2.42;;;;;;;;;;5015646;28;20065;-48
2021/11/22 12:50:11;;;;;;;3.03;2.63;;;;;;;;;;5017058;28;20451;-47
2021/11/22 12:52:37;;;;;;;3.67;2.50;;;;;;;;;;5014785;28;20387;-49
2021/11/22 12:55:13;;;;;;;3.08;2.17;;;;;;;;;;5014945;28;20029;-49
2021/11/22 12:57:48;;;;;;;3.03;2.50;;;;;;;;;;5012281;28;20033;-52
2021/11/22 13:00:21;;;;;;;2.53;1.77;;;;;;;;;;5014514;28;20075;-48
2021/11/22 13:02:58;;;;;;;2.80;2.40;;;;;;;;;;5016475;28;20111;-52
2021/11/22 13:05:42;;;;;;;2.90;2.08;;;;;;;;;;5019417;28;20050;-50
2021/11/22 13:08:27;;;;;;;2.60;2.00;;;;;;;;;;5013372;28;20036;-51
2021/11/22 13:11:28;;;;;;;2.80;2.33;;;;;;;;;;5011274;28;20050;-51
2021/11/22 13:13:57;;;;;;;2.63;2.13;;;;;;;;;;5014725;28;20494;-51
2021/11/22 13:16:24;;;;;;;2.90;2.30;;;;;;;;;;5017059;28;20052;-49
2021/11/22 13:18:52;;;;;;;3.22;2.35;;;;;;;;;;5013019;28;20045;-52
2021/11/22 13:21:27;;;;;;;4.03;2.97;;;;;;;;;;5015173;28;20456;-52
2021/11/22 13:23:55;;;;;;;2.60;2.05;;;;;;;;;;4985214;28;20625;-51
2021/11/22 13:26:25;;;;;;;2.40;1.70;;;;;;;;;;5012639;28;20044;-50
2021/11/22 13:29:07;;;;;;;2.92;2.45;;;;;;;;;;5015375;28;20025;-52
2021/11/22 13:31:43;;;;;;;2.72;2.20;;;;;;;;;;5015630;28;20080;-49
2021/11/22 13:34:09;;;;;;;3.10;2.30;;;;;;;;;;5012613;28;20367;-51
2021/11/22 13:36:38;;;;;;;2.60;2.03;;;;;;;;;;5009328;28;20083;-53
2021/11/22 13:39:15;;;;;;;2.78;2.17;;;;;;;;;;5012883;28;20048;-53
2021/11/22 13:41:49;;;;;;;2.72;2.35;;;;;;;;;;5012533;28;20038;-53
2021/11/22 13:44:15;;;;;;;2.70;1.85;;;;;;;;;;5014763;28;20463;-49
2021/11/22 13:46:41;;;;;;;2.70;2.22;;;;;;;;;;5014054;28;20120;-50
2021/11/22 13:49:07;;;;;;;2.60;2.03;;;;;;;;;;5013311;28;20512;-49
2021/11/22 13:51:40;;;;;;;3.45;2.20;;;;;;;;;;5015178;28;20034;-51
2021/11/22 13:54:16;;;;;;;2.63;2.15;;;;;;;;;;5015893;28;20042;-56
2021/11/22 13:56:47;;;;;;;3.35;2.42;;;;;;;;;;5030312;28;20049;-57
2021/11/22 13:59:21;;;;;;;2.80;2.30;;;;;;;;;;5015884;28;20107;-53
2021/11/22 14:01:49;;;;;;;3.53;2.53;;;;;;;;;;5014488;28;20040;-50
2021/11/22 14:04:16;;;;;;;2.60;2.08;;;;;;;;;;5015827;28;20030;-53
2021/11/22 14:06:42;;;;;;;2.70;2.10;;;;;;;;;;5014666;28;20124;-51
2021/11/22 14:09:08;;;;;;;2.80;2.10;;;;;;;;;;5014517;28;20105;-50
2021/11/22 14:11:33;;;;;;;2.75;2.20;;;;;;;;;;5012276;28;20479;-51
2021/11/22 14:14:01;;;;;;;2.88;2.38;;;;;;;;;;5010704;28;20037;-49
2021/11/22 14:16:29;;;;;;;2.60;1.95;;;;;;;;;;5016396;28;20041;-51
2021/11/22 14:18:56;;;;;;;5.32;2.42;;;;;;;;;;5011018;28;20410;-52
2021/11/22 14:21:34;;;;;;;3.83;2.40;;;;;;;;;;5016378;28;20037;-50
2021/11/22 14:24:08;;;;;;;2.60;2.10;;;;;;;;;;5017112;28;20042;-48
2021/11/22 14:26:35;;;;;;;2.90;2.25;;;;;;;;;;5014160;28;20033;-50
2021/11/22 14:29:12;;;;;;;3.15;2.33;;;;;;;;;;5017370;28;20041;-50
2021/11/22 14:32:07;;;;;;;3.20;2.63;;;;;;;;;;5013367;28;20709;-46
2021/11/22 14:34:32;;;;;;;3.70;2.58;;;;;;;;;;5008833;28;20056;-51
2021/11/22 14:36:59;;;;;;;2.67;2.10;;;;;;;;;;5014418;28;20451;-49
2021/11/22 14:39:34;;;;;;;2.53;2.00;;;;;;;;;;5015752;28;20374;-50
2021/11/22 14:42:11;;;;;;;2.75;2.20;;;;;;;;;;5014752;28;20025;-51
2021/11/22 14:44:50;;;;;;;3.20;2.42;;;;;;;;;;5015546;28;20048;-46
2021/11/22 14:47:45;;;;;;;2.95;2.45;;;;;;;;;;5019092;28;20661;-49
2021/11/22 14:50:25;;;;;;;3.28;2.70;;;;;;;;;;5019578;28;20045;-52
2021/11/22 14:53:13;;;;;;;3.42;2.67;;;;;;;;;;5017743;28;20478;-51